createdAt,value
2023-01-09T00:00:01.499Z,16.13
2023-01-09T00:02:35.276Z,17.13
2023-01-09T00:05:06.283Z,18.58
2023-01-09T00:07:34.106Z,16.02
2023-01-09T00:10:01.778Z,16.42
2023-01-09T00:12:29.982Z,16.70
2023-01-09T00:14:57.560Z,14.20
2023-01-09T00:17:26.027Z,15.77
2023-01-09T00:19:53.967Z,17.98
2023-01-09T00:22:22.905Z,25.55
2023-01-09T00:24:52.616Z,14.40
2023-01-09T00:27:20.659Z,18.35
2023-01-09T00:29:48.189Z,16.80
2023-01-09T00:32:16.904Z,16.20
2023-01-09T00:34:44.620Z,15.77
2023-01-09T00:37:12.133Z,16.60
2023-01-09T00:39:42.973Z,15.40
2023-01-09T00:42:12.968Z,13.48
2023-01-09T00:44:43.836Z,17.45
2023-01-09T00:47:15.696Z,16.42
2023-01-09T00:49:45.709Z,14.40
2023-01-09T00:52:14.590Z,16.80
2023-01-09T00:54:44.346Z,19.70
2023-01-09T00:57:13.948Z,16.40
2023-01-09T00:59:42.493Z,21.08
2023-01-09T01:02:10.611Z,15.30
2023-01-09T01:04:38.612Z,15.07
2023-01-09T01:07:06.387Z,18.67
2023-01-09T01:09:34.005Z,18.90
2023-01-09T01:12:03.285Z,15.10
2023-01-09T01:14:31.191Z,14.95
2023-01-09T01:16:58.781Z,17.38
2023-01-09T01:19:26.619Z,18.58
2023-01-09T01:21:55.818Z,20.17
2023-01-09T01:24:23.557Z,20.05
2023-01-09T01:26:51.369Z,18.40
2023-01-09T01:29:20.732Z,20.95
2023-01-09T01:31:48.270Z,19.35
2023-01-09T01:34:16.033Z,23.30
2023-01-09T01:36:43.639Z,18.88
2023-01-09T01:39:11.206Z,18.70
2023-01-09T01:41:38.915Z,19.20
2023-01-09T01:44:27.496Z,17.73
2023-01-09T01:46:57.642Z,20.08
2023-01-09T01:49:25.492Z,23.25
2023-01-09T01:51:54.119Z,17.65
2023-01-09T01:54:25.271Z,23.83
2023-01-09T01:57:01.007Z,21.10
2023-01-09T02:02:02.326Z,17.73
2023-01-09T02:04:33.208Z,17.50
2023-01-09T02:07:04.844Z,22.40
2023-01-09T02:12:00.198Z,19.05
2023-01-09T02:14:31.831Z,19.70
2023-01-09T02:17:08.922Z,18.95
2023-01-09T02:20:06.800Z,24.35
2023-01-09T02:22:41.101Z,21.13
2023-01-09T02:25:42.668Z,23.15
2023-01-09T02:28:44.749Z,20.80
2023-01-09T02:31:21.571Z,21.37
2023-01-09T02:34:02.374Z,23.05
2023-01-09T02:36:34.508Z,18.17
2023-01-09T02:39:15.969Z,23.08
2023-01-09T02:41:50.437Z,22.70
2023-01-09T02:44:21.906Z,21.92
2023-01-09T02:47:02.353Z,24.30
2023-01-09T02:49:31.127Z,21.80
2023-01-09T02:52:10.323Z,24.40
2023-01-09T02:54:50.988Z,27.27
2023-01-09T02:57:43.166Z,23.15
2023-01-09T03:00:23.327Z,23.17
2023-01-09T03:02:55.504Z,26.40
2023-01-09T03:05:29.950Z,26.45
2023-01-09T03:08:02.828Z,26.80
2023-01-09T03:10:36.348Z,21.73
2023-01-09T03:13:09.567Z,24.67
2023-01-09T03:15:41.624Z,24.17
2023-01-09T03:18:13.885Z,23.15
2023-01-09T03:20:42.914Z,25.83
2023-01-09T03:23:10.913Z,21.52
2023-01-09T03:25:39.372Z,24.63
2023-01-09T03:28:08.936Z,21.90
2023-01-09T03:30:36.878Z,21.75
2023-01-09T03:33:04.521Z,19.50
2023-01-09T03:35:34.474Z,24.35
2023-01-09T03:38:02.171Z,24.23
2023-01-09T03:40:29.847Z,25.60
2023-01-09T03:42:57.643Z,21.65
2023-01-09T03:45:25.471Z,21.90
2023-01-09T03:47:53.205Z,20.55
2023-01-09T03:50:21.066Z,27.73
2023-01-09T03:52:50.185Z,22.42
2023-01-09T03:55:17.944Z,30.48
2023-01-09T03:57:45.601Z,23.42
2023-01-09T04:00:14.123Z,21.90
2023-01-09T04:02:42.723Z,19.85
2023-01-09T04:05:10.738Z,21.45
2023-01-09T04:07:38.435Z,27.50
2023-01-09T04:10:09.703Z,24.45
2023-01-09T04:12:37.484Z,25.25
2023-01-09T04:15:06.482Z,21.52
2023-01-09T04:17:35.852Z,22.77
2023-01-09T04:20:03.949Z,25.30
2023-01-09T04:22:31.931Z,25.30
2023-01-09T04:24:59.448Z,20.05
2023-01-09T04:27:28.534Z,21.65
2023-01-09T04:29:56.307Z,30.38
2023-01-09T04:32:23.858Z,28.88
2023-01-09T04:34:51.947Z,27.60
2023-01-09T04:37:19.988Z,23.75
2023-01-09T04:39:47.523Z,25.35
2023-01-09T04:42:19.529Z,21.92
2023-01-09T04:44:48.725Z,17.30
2023-01-09T04:47:16.442Z,19.60
2023-01-09T04:49:44.109Z,25.20
2023-01-09T04:52:11.955Z,22.20
2023-01-09T04:54:39.881Z,21.30
2023-01-09T04:57:07.662Z,22.25
2023-01-09T04:59:36.962Z,23.45
2023-01-09T05:02:06.212Z,29.77
2023-01-09T05:04:34.369Z,22.58
2023-01-09T05:07:02.155Z,25.60
2023-01-09T05:09:30.076Z,21.17
2023-01-09T05:11:57.738Z,25.55
2023-01-09T05:14:25.450Z,23.65
2023-01-09T05:16:53.046Z,21.80
2023-01-09T05:19:22.892Z,20.08
2023-01-09T05:21:50.916Z,23.70
2023-01-09T05:24:18.561Z,22.75
2023-01-09T05:26:46.216Z,20.77
2023-01-09T05:29:13.929Z,20.42
2023-01-09T05:31:41.477Z,21.27
2023-01-09T05:34:09.166Z,19.50
2023-01-09T05:36:39.458Z,23.45
2023-01-09T05:39:07.090Z,23.13
2023-01-09T05:41:34.979Z,17.75
2023-01-09T05:44:03.637Z,17.23
2023-01-09T05:46:31.563Z,27.40
2023-01-09T05:48:59.526Z,25.27
2023-01-09T05:51:27.305Z,25.45
2023-01-09T05:53:56.352Z,26.42
2023-01-09T05:56:24.000Z,24.10
2023-01-09T05:58:51.675Z,27.00
2023-01-09T06:01:19.259Z,24.50
2023-01-09T06:03:47.036Z,29.83
2023-01-09T06:06:15.693Z,28.08
2023-01-09T06:08:43.243Z,26.98
2023-01-09T06:11:12.407Z,31.50
2023-01-09T06:13:43.489Z,30.75
2023-01-09T06:16:11.188Z,33.53
2023-01-09T06:18:39.293Z,26.75
2023-01-09T06:21:07.160Z,27.35
2023-01-09T06:23:34.789Z,31.88
2023-01-09T06:26:06.441Z,32.85
2023-01-09T06:28:35.578Z,26.92
2023-01-09T06:31:03.233Z,26.02
2023-01-09T06:33:30.998Z,36.95
2023-01-09T06:35:58.781Z,33.50
2023-01-09T06:38:26.415Z,29.65
2023-01-09T06:40:54.227Z,29.92
2023-01-09T06:43:21.885Z,29.05
2023-01-09T06:45:53.265Z,30.55
2023-01-09T06:48:20.943Z,27.25
2023-01-09T06:50:48.745Z,26.55
2023-01-09T06:53:16.319Z,23.35
2023-01-09T06:55:44.358Z,23.70
2023-01-09T06:58:12.749Z,24.35
2023-01-09T07:00:40.255Z,26.02
2023-01-09T07:03:09.322Z,26.38
2023-01-09T07:05:41.086Z,29.27
2023-01-09T07:08:09.610Z,26.08
2023-01-09T07:10:38.830Z,25.73
2023-01-09T07:13:06.623Z,21.80
2023-01-09T07:15:34.497Z,26.27
2023-01-09T07:18:03.289Z,26.17
2023-01-09T07:20:32.494Z,24.27
2023-01-09T07:23:00.568Z,22.15
2023-01-09T07:25:28.340Z,21.48
2023-01-09T07:27:56.762Z,21.35
2023-01-09T07:30:24.531Z,20.23
2023-01-09T07:32:53.191Z,24.48
2023-01-09T07:35:20.683Z,17.30
2023-01-09T07:37:49.727Z,21.85
2023-01-09T07:40:17.641Z,25.45
2023-01-09T07:42:45.197Z,15.20
2023-01-09T07:45:13.089Z,17.55
2023-01-09T07:47:41.361Z,22.73
2023-01-09T07:50:09.948Z,20.80
2023-01-09T07:52:38.162Z,22.48
2023-01-09T07:55:09.020Z,26.77
2023-01-09T07:57:36.584Z,16.90
2023-01-09T08:00:05.556Z,19.38
2023-01-09T08:02:33.610Z,23.10
2023-01-09T11:40:26.454Z,19.77
2023-01-09T11:43:15.624Z,20.90
2023-01-09T11:46:00.762Z,20.33
2023-01-09T11:48:37.946Z,16.48
2023-01-09T11:51:17.535Z,18.73
2023-01-09T11:53:55.483Z,17.73
2023-01-09T11:56:24.926Z,20.75
2023-01-09T11:58:53.038Z,18.48
2023-01-09T12:02:01.559Z,17.02
2023-01-09T12:04:35.298Z,18.58
2023-01-09T12:07:22.279Z,17.48
2023-01-09T12:09:58.973Z,18.77
2023-01-09T12:12:36.857Z,18.70
2023-01-09T12:15:23.309Z,19.38
2023-01-09T12:18:11.053Z,17.73
2023-01-09T12:20:53.490Z,22.00
2023-01-09T12:23:35.161Z,15.52
2023-01-09T12:29:21.805Z,24.58
2023-01-09T12:32:06.864Z,19.88
2023-01-09T12:34:52.814Z,26.70
2023-01-09T12:37:46.301Z,15.60
2023-01-09T12:40:30.763Z,15.27
2023-01-09T12:43:07.906Z,20.05
2023-01-09T12:45:54.789Z,18.67
2023-01-09T12:48:43.529Z,21.30
2023-01-09T12:51:28.524Z,14.00
2023-01-09T12:54:01.278Z,21.08
2023-01-09T12:56:33.665Z,16.67
2023-01-09T12:59:10.433Z,13.27
2023-01-09T13:01:46.066Z,17.00
2023-01-09T13:04:19.464Z,15.05
2023-01-09T13:06:53.279Z,16.55
2023-01-09T13:09:26.652Z,17.25
2023-01-09T13:12:03.167Z,16.95
2023-01-09T13:14:46.099Z,14.07
2023-01-09T13:17:21.357Z,18.80
2023-01-09T13:19:49.057Z,18.33
2023-01-09T13:22:17.301Z,12.98
2023-01-09T13:25:13.834Z,15.55
2023-01-09T13:27:46.831Z,28.67
2023-01-09T13:30:30.349Z,19.45
2023-01-09T13:33:13.041Z,18.90
2023-01-09T13:35:49.379Z,13.40
2023-01-09T13:38:21.782Z,17.55
2023-01-09T13:41:02.209Z,19.35
2023-01-09T13:43:54.370Z,15.50
2023-01-09T13:48:52.494Z,14.75
2023-01-09T13:51:56.902Z,18.52
2023-01-09T13:55:02.769Z,19.85
2023-01-09T13:57:33.373Z,14.65
2023-01-09T14:00:38.631Z,16.45
2023-01-09T14:03:16.839Z,15.98
2023-01-09T14:06:19.412Z,15.75
2023-01-09T14:08:49.125Z,23.25
2023-01-09T14:11:22.923Z,20.13
2023-01-09T14:14:02.671Z,18.23
2023-01-09T14:16:31.580Z,19.33
2023-01-09T14:19:05.890Z,19.48
2023-01-09T14:21:47.837Z,35.83
2023-01-09T14:24:25.205Z,18.80
2023-01-09T14:26:56.829Z,16.15
2023-01-09T14:29:43.398Z,18.08
2023-01-09T14:32:45.615Z,18.52
2023-01-09T14:37:56.365Z,17.90
2023-01-09T14:40:24.366Z,17.38
2023-01-09T14:42:55.325Z,18.15
2023-01-09T14:45:25.166Z,16.77
2023-01-09T14:47:56.448Z,18.10
2023-01-09T14:50:30.618Z,19.60
2023-01-09T14:53:05.586Z,15.75
2023-01-09T14:55:43.400Z,16.88
2023-01-09T14:58:12.346Z,16.67
2023-01-09T15:00:49.727Z,13.38
2023-01-09T15:03:17.579Z,12.10
2023-01-09T15:05:46.534Z,16.35
2023-01-09T15:08:20.623Z,15.93
2023-01-09T15:10:51.158Z,20.85
2023-01-09T15:13:25.122Z,24.40
2023-01-09T15:15:53.377Z,15.80
2023-01-09T15:18:24.005Z,17.90
2023-01-09T15:20:54.367Z,14.82
2023-01-09T15:23:25.510Z,15.30
2023-01-09T15:25:53.033Z,14.80
2023-01-09T15:28:25.031Z,24.52
2023-01-09T15:31:03.209Z,12.50
2023-01-09T15:33:31.415Z,18.02
2023-01-09T15:35:59.665Z,15.27
2023-01-09T15:38:31.856Z,14.00
2023-01-09T15:41:04.371Z,13.15
2023-01-09T15:43:32.770Z,17.98
2023-01-09T15:46:01.332Z,19.77
2023-01-09T15:48:31.178Z,13.27
2023-01-09T15:51:03.431Z,17.63
2023-01-09T15:53:33.155Z,15.27
2023-01-09T15:56:15.356Z,12.38
2023-01-09T15:58:45.081Z,14.93
2023-01-09T16:01:31.335Z,14.18
2023-01-09T16:04:06.925Z,22.98
2023-01-09T16:06:36.176Z,14.15
2023-01-09T16:09:16.256Z,16.33
2023-01-09T16:11:47.588Z,14.68
2023-01-09T16:16:47.717Z,11.57
2023-01-09T16:19:30.327Z,12.75
2023-01-09T16:21:59.134Z,16.80
2023-01-09T16:24:37.881Z,10.55
2023-01-09T16:27:27.156Z,15.93
2023-01-09T16:29:58.414Z,11.65
2023-01-09T16:32:28.848Z,8.40
2023-01-09T16:34:58.525Z,14.50
2023-01-09T16:37:26.920Z,18.02
2023-01-09T16:40:26.741Z,15.25
2023-01-09T16:42:56.602Z,13.88
2023-01-09T16:45:25.414Z,16.48
2023-01-09T16:47:53.174Z,14.50
2023-01-09T16:50:21.276Z,22.00
2023-01-09T16:52:48.834Z,12.85
2023-01-09T16:55:16.743Z,17.58
2023-01-09T16:57:47.676Z,12.50
2023-01-09T17:00:17.568Z,14.30
2023-01-09T17:02:45.782Z,13.82
2023-01-09T17:05:13.852Z,11.20
2023-01-09T17:07:41.605Z,11.20
2023-01-09T17:10:19.128Z,8.52
2023-01-09T17:12:48.758Z,9.35
2023-01-09T17:15:16.417Z,22.58
2023-01-09T17:17:44.093Z,12.57
2023-01-09T17:20:17.127Z,13.35
2023-01-09T17:22:48.947Z,13.98
2023-01-09T17:25:17.014Z,19.27
2023-01-09T17:27:45.366Z,13.45
2023-01-09T17:30:18.918Z,14.38
2023-01-09T17:32:47.207Z,11.80
2023-01-09T17:35:17.228Z,13.43
2023-01-09T17:37:44.834Z,9.90
2023-01-09T17:40:18.770Z,18.65
2023-01-09T17:42:47.677Z,16.35
2023-01-09T17:45:16.913Z,10.38
